sensor_id;sensor_type;location;lat;lon;timestamp;temperature;humidity
25512;DHT22;13414;44.534;18.700;2023-05-16T00:02:04;15.40;99.90
25512;DHT22;13414;44.534;18.700;2023-05-16T00:04:32;15.30;99.90
25512;DHT22;13414;44.534;18.700;2023-05-16T00:06:59;15.30;99.90
25512;DHT22;13414;44.534;18.700;2023-05-16T00:09:27;15.30;99.90
25512;DHT22;13414;44.534;18.700;2023-05-16T00:11:54;15.30;99.90
25512;DHT22;13414;44.534;18.700;2023-05-16T00:14:22;15.20;99.90
25512;DHT22;13414;44.534;18.700;2023-05-16T00:16:53;15.20;99.90
25512;DHT22;13414;44.534;18.700;2023-05-16T00:19:23;15.30;99.90
25512;DHT22;13414;44.534;18.700;2023-05-16T00:21:51;15.30;99.90
25512;DHT22;13414;44.534;18.700;2023-05-16T00:24:18;15.30;99.90
25512;DHT22;13414;44.534;18.700;2023-05-16T00:26:46;15.30;99.90
25512;DHT22;13414;44.534;18.700;2023-05-16T00:29:14;15.30;99.90
25512;DHT22;13414;44.534;18.700;2023-05-16T00:31:41;15.20;99.90
25512;DHT22;13414;44.534;18.700;2023-05-16T00:34:10;15.30;99.90
25512;DHT22;13414;44.534;18.700;2023-05-16T00:36:37;15.30;99.90
25512;DHT22;13414;44.534;18.700;2023-05-16T00:39:05;15.30;99.90
25512;DHT22;13414;44.534;18.700;2023-05-16T00:41:33;15.30;99.90
25512;DHT22;13414;44.534;18.700;2023-05-16T00:44:00;15.30;99.90
25512;DHT22;13414;44.534;18.700;2023-05-16T00:46:28;15.30;99.90
25512;DHT22;13414;44.534;18.700;2023-05-16T00:48:55;15.30;99.90
25512;DHT22;13414;44.534;18.700;2023-05-16T00:51:24;15.30;99.90
25512;DHT22;13414;44.534;18.700;2023-05-16T00:53:52;15.30;99.90
25512;DHT22;13414;44.534;18.700;2023-05-16T00:56:21;15.30;99.90
25512;DHT22;13414;44.534;18.700;2023-05-16T00:58:48;15.40;99.90
25512;DHT22;13414;44.534;18.700;2023-05-16T01:01:17;15.40;99.90
25512;DHT22;13414;44.534;18.700;2023-05-16T01:03:46;15.30;99.90
25512;DHT22;13414;44.534;18.700;2023-05-16T01:06:14;15.30;99.90
25512;DHT22;13414;44.534;18.700;2023-05-16T01:08:43;15.20;99.90
25512;DHT22;13414;44.534;18.700;2023-05-16T01:11:15;15.20;99.90
25512;DHT22;13414;44.534;18.700;2023-05-16T01:14:05;15.20;99.90
25512;DHT22;13414;44.534;18.700;2023-05-16T01:16:42;15.20;99.90
25512;DHT22;13414;44.534;18.700;2023-05-16T01:19:41;15.20;99.90
25512;DHT22;13414;44.534;18.700;2023-05-16T01:22:16;15.20;99.90
25512;DHT22;13414;44.534;18.700;2023-05-16T01:24:59;15.20;99.90
25512;DHT22;13414;44.534;18.700;2023-05-16T01:27:31;15.10;99.90
25512;DHT22;13414;44.534;18.700;2023-05-16T01:29:59;15.10;99.90
25512;DHT22;13414;44.534;18.700;2023-05-16T01:32:27;15.10;99.90
25512;DHT22;13414;44.534;18.700;2023-05-16T01:34:54;15.10;99.90
25512;DHT22;13414;44.534;18.700;2023-05-16T01:37:28;15.10;99.90
25512;DHT22;13414;44.534;18.700;2023-05-16T01:40:01;15.10;99.90
25512;DHT22;13414;44.534;18.700;2023-05-16T01:42:39;15.10;99.90
25512;DHT22;13414;44.534;18.700;2023-05-16T01:45:13;15.10;99.90
25512;DHT22;13414;44.534;18.700;2023-05-16T01:47:45;15.20;99.90
25512;DHT22;13414;44.534;18.700;2023-05-16T01:50:15;15.20;99.90
25512;DHT22;13414;44.534;18.700;2023-05-16T01:52:48;15.20;99.90
25512;DHT22;13414;44.534;18.700;2023-05-16T01:55:22;15.20;99.90
25512;DHT22;13414;44.534;18.700;2023-05-16T01:57:52;15.20;99.90
25512;DHT22;13414;44.534;18.700;2023-05-16T02:00:20;15.20;99.90
25512;DHT22;13414;44.534;18.700;2023-05-16T02:02:48;15.20;99.90
25512;DHT22;13414;44.534;18.700;2023-05-16T02:05:16;15.20;99.90
25512;DHT22;13414;44.534;18.700;2023-05-16T02:07:43;15.20;99.90
25512;DHT22;13414;44.534;18.700;2023-05-16T02:10:12;15.20;99.90
25512;DHT22;13414;44.534;18.700;2023-05-16T02:12:40;15.20;99.90
25512;DHT22;13414;44.534;18.700;2023-05-16T02:15:10;15.20;99.90
25512;DHT22;13414;44.534;18.700;2023-05-16T02:17:37;15.30;99.90
25512;DHT22;13414;44.534;18.700;2023-05-16T02:20:06;15.20;99.90
25512;DHT22;13414;44.534;18.700;2023-05-16T02:22:35;15.30;99.90
25512;DHT22;13414;44.534;18.700;2023-05-16T02:25:05;15.20;99.90
25512;DHT22;13414;44.534;18.700;2023-05-16T02:27:32;15.30;99.90
25512;DHT22;13414;44.534;18.700;2023-05-16T02:30:01;15.20;99.90
25512;DHT22;13414;44.534;18.700;2023-05-16T02:32:31;15.20;99.90
25512;DHT22;13414;44.534;18.700;2023-05-16T02:34:58;15.20;99.90
25512;DHT22;13414;44.534;18.700;2023-05-16T02:37:26;15.20;99.90
25512;DHT22;13414;44.534;18.700;2023-05-16T02:39:53;15.30;99.90
25512;DHT22;13414;44.534;18.700;2023-05-16T02:42:21;15.20;99.90
25512;DHT22;13414;44.534;18.700;2023-05-16T02:44:48;15.20;99.90
25512;DHT22;13414;44.534;18.700;2023-05-16T02:47:17;15.20;99.90
25512;DHT22;13414;44.534;18.700;2023-05-16T02:49:46;15.20;99.90
25512;DHT22;13414;44.534;18.700;2023-05-16T02:52:13;15.10;99.90
25512;DHT22;13414;44.534;18.700;2023-05-16T02:54:41;15.10;99.90
25512;DHT22;13414;44.534;18.700;2023-05-16T02:57:08;15.10;99.90
25512;DHT22;13414;44.534;18.700;2023-05-16T02:59:36;15.00;99.90
25512;DHT22;13414;44.534;18.700;2023-05-16T03:02:04;15.00;99.90
25512;DHT22;13414;44.534;18.700;2023-05-16T03:04:32;15.00;99.90
25512;DHT22;13414;44.534;18.700;2023-05-16T03:07:01;15.00;99.90
25512;DHT22;13414;44.534;18.700;2023-05-16T03:09:29;14.90;99.90
25512;DHT22;13414;44.534;18.700;2023-05-16T03:11:56;15.00;99.90
25512;DHT22;13414;44.534;18.700;2023-05-16T03:14:24;15.00;99.90
25512;DHT22;13414;44.534;18.700;2023-05-16T03:16:51;15.00;99.90
25512;DHT22;13414;44.534;18.700;2023-05-16T03:19:19;15.10;99.90
25512;DHT22;13414;44.534;18.700;2023-05-16T03:21:46;15.10;99.90
25512;DHT22;13414;44.534;18.700;2023-05-16T03:24:15;15.10;99.90
25512;DHT22;13414;44.534;18.700;2023-05-16T03:26:43;15.10;99.90
25512;DHT22;13414;44.534;18.700;2023-05-16T03:29:10;15.10;99.90
25512;DHT22;13414;44.534;18.700;2023-05-16T03:31:38;15.10;99.90
25512;DHT22;13414;44.534;18.700;2023-05-16T03:34:07;15.10;99.90
25512;DHT22;13414;44.534;18.700;2023-05-16T03:36:34;15.20;99.90
25512;DHT22;13414;44.534;18.700;2023-05-16T03:39:02;15.20;99.90
25512;DHT22;13414;44.534;18.700;2023-05-16T03:41:30;15.20;99.90
25512;DHT22;13414;44.534;18.700;2023-05-16T03:43:58;15.20;99.90
25512;DHT22;13414;44.534;18.700;2023-05-16T03:46:25;15.20;99.90
25512;DHT22;13414;44.534;18.700;2023-05-16T03:48:53;15.30;99.90
25512;DHT22;13414;44.534;18.700;2023-05-16T03:51:20;15.30;99.90
25512;DHT22;13414;44.534;18.700;2023-05-16T03:53:48;15.20;99.90
25512;DHT22;13414;44.534;18.700;2023-05-16T03:56:15;15.20;99.90
25512;DHT22;13414;44.534;18.700;2023-05-16T03:58:44;15.20;99.90
25512;DHT22;13414;44.534;18.700;2023-05-16T04:01:12;15.40;99.90
25512;DHT22;13414;44.534;18.700;2023-05-16T04:03:39;15.40;99.90
25512;DHT22;13414;44.534;18.700;2023-05-16T04:06:07;15.40;99.90
25512;DHT22;13414;44.534;18.700;2023-05-16T04:08:34;15.40;99.90
25512;DHT22;13414;44.534;18.700;2023-05-16T04:11:04;15.30;99.90
25512;DHT22;13414;44.534;18.700;2023-05-16T04:13:31;15.40;99.90
25512;DHT22;13414;44.534;18.700;2023-05-16T04:16:00;15.40;99.90
25512;DHT22;13414;44.534;18.700;2023-05-16T04:18:28;15.40;99.90
25512;DHT22;13414;44.534;18.700;2023-05-16T04:20:55;15.40;99.90
25512;DHT22;13414;44.534;18.700;2023-05-16T04:23:23;15.40;99.90
25512;DHT22;13414;44.534;18.700;2023-05-16T04:25:50;15.40;99.90
25512;DHT22;13414;44.534;18.700;2023-05-16T04:28:17;15.40;99.90
25512;DHT22;13414;44.534;18.700;2023-05-16T04:30:45;15.50;99.90
25512;DHT22;13414;44.534;18.700;2023-05-16T04:33:15;15.50;99.90
25512;DHT22;13414;44.534;18.700;2023-05-16T04:35:43;15.60;99.90
25512;DHT22;13414;44.534;18.700;2023-05-16T04:38:10;15.60;99.90
25512;DHT22;13414;44.534;18.700;2023-05-16T04:40:38;15.60;99.90
25512;DHT22;13414;44.534;18.700;2023-05-16T04:43:06;15.60;99.90
25512;DHT22;13414;44.534;18.700;2023-05-16T04:45:34;15.70;99.90
25512;DHT22;13414;44.534;18.700;2023-05-16T04:48:01;15.70;99.90
25512;DHT22;13414;44.534;18.700;2023-05-16T04:50:30;15.80;99.90
25512;DHT22;13414;44.534;18.700;2023-05-16T04:52:58;15.70;99.90
25512;DHT22;13414;44.534;18.700;2023-05-16T04:55:25;15.80;99.90
25512;DHT22;13414;44.534;18.700;2023-05-16T04:57:53;15.80;99.90
25512;DHT22;13414;44.534;18.700;2023-05-16T05:00:20;15.80;99.90
25512;DHT22;13414;44.534;18.700;2023-05-16T05:02:48;15.80;99.90
25512;DHT22;13414;44.534;18.700;2023-05-16T05:05:15;15.90;99.90
25512;DHT22;13414;44.534;18.700;2023-05-16T05:07:44;15.90;99.90
25512;DHT22;13414;44.534;18.700;2023-05-16T05:10:12;15.90;99.90
25512;DHT22;13414;44.534;18.700;2023-05-16T05:12:39;16.00;99.90
25512;DHT22;13414;44.534;18.700;2023-05-16T05:15:07;16.00;99.90
25512;DHT22;13414;44.534;18.700;2023-05-16T05:17:34;16.10;99.90
25512;DHT22;13414;44.534;18.700;2023-05-16T05:20:02;16.10;99.90
25512;DHT22;13414;44.534;18.700;2023-05-16T05:22:32;16.10;99.90
25512;DHT22;13414;44.534;18.700;2023-05-16T05:25:01;16.00;99.90
25512;DHT22;13414;44.534;18.700;2023-05-16T05:27:29;16.10;99.90
25512;DHT22;13414;44.534;18.700;2023-05-16T05:29:56;16.10;99.90
25512;DHT22;13414;44.534;18.700;2023-05-16T05:32:23;16.10;99.90
25512;DHT22;13414;44.534;18.700;2023-05-16T05:34:51;16.10;99.90
25512;DHT22;13414;44.534;18.700;2023-05-16T05:37:18;16.10;99.90
25512;DHT22;13414;44.534;18.700;2023-05-16T05:39:46;16.10;99.90
25512;DHT22;13414;44.534;18.700;2023-05-16T05:42:16;16.10;99.90
25512;DHT22;13414;44.534;18.700;2023-05-16T05:44:43;16.20;99.90
25512;DHT22;13414;44.534;18.700;2023-05-16T05:47:11;16.20;99.90
25512;DHT22;13414;44.534;18.700;2023-05-16T05:49:38;16.20;99.90
25512;DHT22;13414;44.534;18.700;2023-05-16T05:52:06;16.20;99.90
25512;DHT22;13414;44.534;18.700;2023-05-16T05:54:33;16.10;99.90
25512;DHT22;13414;44.534;18.700;2023-05-16T05:57:01;16.10;99.90
25512;DHT22;13414;44.534;18.700;2023-05-16T05:59:30;16.10;99.90
25512;DHT22;13414;44.534;18.700;2023-05-16T06:01:57;16.10;99.90
25512;DHT22;13414;44.534;18.700;2023-05-16T06:04:24;16.10;99.90
25512;DHT22;13414;44.534;18.700;2023-05-16T06:06:52;16.10;99.90
25512;DHT22;13414;44.534;18.700;2023-05-16T06:09:20;16.00;99.90
25512;DHT22;13414;44.534;18.700;2023-05-16T06:11:49;16.00;99.90
25512;DHT22;13414;44.534;18.700;2023-05-16T06:14:16;15.90;99.90
25512;DHT22;13414;44.534;18.700;2023-05-16T06:16:45;15.90;99.90
25512;DHT22;13414;44.534;18.700;2023-05-16T06:19:12;15.90;99.90
25512;DHT22;13414;44.534;18.700;2023-05-16T06:21:41;15.80;99.90
25512;DHT22;13414;44.534;18.700;2023-05-16T06:24:09;15.80;99.90
25512;DHT22;13414;44.534;18.700;2023-05-16T06:26:37;15.80;99.90
25512;DHT22;13414;44.534;18.700;2023-05-16T06:29:04;15.80;99.90
25512;DHT22;13414;44.534;18.700;2023-05-16T06:31:32;15.80;99.90
25512;DHT22;13414;44.534;18.700;2023-05-16T06:34:01;15.80;99.90
25512;DHT22;13414;44.534;18.700;2023-05-16T06:36:28;15.70;99.90
25512;DHT22;13414;44.534;18.700;2023-05-16T06:38:56;15.60;99.90
25512;DHT22;13414;44.534;18.700;2023-05-16T06:41:23;15.60;99.90
25512;DHT22;13414;44.534;18.700;2023-05-16T06:43:51;15.50;99.90
25512;DHT22;13414;44.534;18.700;2023-05-16T06:46:18;15.60;99.90
25512;DHT22;13414;44.534;18.700;2023-05-16T06:48:47;15.60;99.90
25512;DHT22;13414;44.534;18.700;2023-05-16T06:51:16;15.60;99.90
25512;DHT22;13414;44.534;18.700;2023-05-16T06:53:44;15.60;99.90
25512;DHT22;13414;44.534;18.700;2023-05-16T06:56:11;15.70;99.90
25512;DHT22;13414;44.534;18.700;2023-05-16T06:58:39;15.80;99.90
25512;DHT22;13414;44.534;18.700;2023-05-16T07:01:06;15.80;99.90
25512;DHT22;13414;44.534;18.700;2023-05-16T07:03:43;16.00;99.90
25512;DHT22;13414;44.534;18.700;2023-05-16T07:06:11;16.40;99.90
25512;DHT22;13414;44.534;18.700;2023-05-16T07:08:39;16.60;99.90
25512;DHT22;13414;44.534;18.700;2023-05-16T07:11:06;16.80;99.90
25512;DHT22;13414;44.534;18.700;2023-05-16T07:13:36;16.70;99.90
25512;DHT22;13414;44.534;18.700;2023-05-16T07:16:04;16.90;99.90
25512;DHT22;13414;44.534;18.700;2023-05-16T07:18:33;17.10;99.90
25512;DHT22;13414;44.534;18.700;2023-05-16T07:21:02;17.60;99.90
25512;DHT22;13414;44.534;18.700;2023-05-16T07:23:29;17.90;99.90
25512;DHT22;13414;44.534;18.700;2023-05-16T07:25:57;18.40;99.90
25512;DHT22;13414;44.534;18.700;2023-05-16T07:28:24;19.00;99.90
25512;DHT22;13414;44.534;18.700;2023-05-16T07:30:55;19.60;99.90
25512;DHT22;13414;44.534;18.700;2023-05-16T07:33:23;19.80;99.90
25512;DHT22;13414;44.534;18.700;2023-05-16T07:35:52;20.10;99.90
25512;DHT22;13414;44.534;18.700;2023-05-16T07:38:21;20.40;99.90
25512;DHT22;13414;44.534;18.700;2023-05-16T07:40:49;20.40;99.90
25512;DHT22;13414;44.534;18.700;2023-05-16T07:43:17;20.40;99.90
25512;DHT22;13414;44.534;18.700;2023-05-16T07:45:44;20.40;99.90
25512;DHT22;13414;44.534;18.700;2023-05-16T07:48:11;20.80;99.90
25512;DHT22;13414;44.534;18.700;2023-05-16T07:50:39;21.00;99.90
25512;DHT22;13414;44.534;18.700;2023-05-16T07:53:07;20.90;99.90
25512;DHT22;13414;44.534;18.700;2023-05-16T07:55:36;20.90;99.90
25512;DHT22;13414;44.534;18.700;2023-05-16T07:58:03;20.90;99.90
25512;DHT22;13414;44.534;18.700;2023-05-16T08:00:31;21.00;99.90
25512;DHT22;13414;44.534;18.700;2023-05-16T08:02:59;21.10;99.90
25512;DHT22;13414;44.534;18.700;2023-05-16T08:05:27;21.30;99.90
25512;DHT22;13414;44.534;18.700;2023-05-16T08:07:54;21.50;99.90
25512;DHT22;13414;44.534;18.700;2023-05-16T08:10:22;21.70;99.90
25512;DHT22;13414;44.534;18.700;2023-05-16T08:12:51;21.80;99.90
25512;DHT22;13414;44.534;18.700;2023-05-16T08:15:18;22.10;99.90
25512;DHT22;13414;44.534;18.700;2023-05-16T08:17:46;21.80;99.90
25512;DHT22;13414;44.534;18.700;2023-05-16T08:20:13;21.60;99.90
25512;DHT22;13414;44.534;18.700;2023-05-16T08:22:41;21.40;99.90
25512;DHT22;13414;44.534;18.700;2023-05-16T08:25:09;21.30;99.90
25512;DHT22;13414;44.534;18.700;2023-05-16T08:27:36;21.60;99.90
25512;DHT22;13414;44.534;18.700;2023-05-16T08:30:06;21.60;99.90
25512;DHT22;13414;44.534;18.700;2023-05-16T08:32:34;21.40;99.90
25512;DHT22;13414;44.534;18.700;2023-05-16T08:35:02;21.40;99.90
25512;DHT22;13414;44.534;18.700;2023-05-16T08:37:29;21.50;99.90
25512;DHT22;13414;44.534;18.700;2023-05-16T08:39:57;21.40;99.90
25512;DHT22;13414;44.534;18.700;2023-05-16T08:42:25;21.00;99.90
25512;DHT22;13414;44.534;18.700;2023-05-16T08:44:53;20.90;99.90
25512;DHT22;13414;44.534;18.700;2023-05-16T08:47:24;20.80;99.90
25512;DHT22;13414;44.534;18.700;2023-05-16T08:49:56;20.70;99.90
25512;DHT22;13414;44.534;18.700;2023-05-16T08:52:26;20.90;99.90
25512;DHT22;13414;44.534;18.700;2023-05-16T08:54:56;21.10;99.90
25512;DHT22;13414;44.534;18.700;2023-05-16T08:57:26;21.80;99.90
25512;DHT22;13414;44.534;18.700;2023-05-16T08:59:55;21.80;99.90
25512;DHT22;13414;44.534;18.700;2023-05-16T09:02:24;22.10;99.90
25512;DHT22;13414;44.534;18.700;2023-05-16T09:04:53;22.20;1.00
25512;DHT22;13414;44.534;18.700;2023-05-16T09:07:23;22.20;1.00
25512;DHT22;13414;44.534;18.700;2023-05-16T09:09:51;22.50;1.00
25512;DHT22;13414;44.534;18.700;2023-05-16T09:12:19;22.60;1.00
25512;DHT22;13414;44.534;18.700;2023-05-16T09:14:47;22.60;1.00
25512;DHT22;13414;44.534;18.700;2023-05-16T09:17:14;22.60;29.00
25512;DHT22;13414;44.534;18.700;2023-05-16T09:19:43;22.50;36.90
25512;DHT22;13414;44.534;18.700;2023-05-16T09:22:14;22.80;1.00
25512;DHT22;13414;44.534;18.700;2023-05-16T09:24:43;23.00;99.90
25512;DHT22;13414;44.534;18.700;2023-05-16T09:27:11;23.00;1.00
25512;DHT22;13414;44.534;18.700;2023-05-16T09:29:39;22.90;99.90
25512;DHT22;13414;44.534;18.700;2023-05-16T09:32:11;22.80;99.90
25512;DHT22;13414;44.534;18.700;2023-05-16T09:34:43;23.00;99.90
25512;DHT22;13414;44.534;18.700;2023-05-16T09:37:13;23.00;99.90
25512;DHT22;13414;44.534;18.700;2023-05-16T09:39:45;23.20;1.00
25512;DHT22;13414;44.534;18.700;2023-05-16T09:42:13;23.40;1.00
25512;DHT22;13414;44.534;18.700;2023-05-16T09:44:41;23.60;1.00
25512;DHT22;13414;44.534;18.700;2023-05-16T09:47:13;24.00;99.90
25512;DHT22;13414;44.534;18.700;2023-05-16T09:49:43;24.40;99.90
25512;DHT22;13414;44.534;18.700;2023-05-16T09:52:10;25.00;99.90
25512;DHT22;13414;44.534;18.700;2023-05-16T09:54:38;25.30;1.00
25512;DHT22;13414;44.534;18.700;2023-05-16T09:57:06;25.80;23.40
25512;DHT22;13414;44.534;18.700;2023-05-16T09:59:35;25.80;1.00
25512;DHT22;13414;44.534;18.700;2023-05-16T10:02:04;25.70;99.90
25512;DHT22;13414;44.534;18.700;2023-05-16T10:04:33;25.30;1.00
25512;DHT22;13414;44.534;18.700;2023-05-16T10:07:03;24.80;1.00
25512;DHT22;13414;44.534;18.700;2023-05-16T10:09:32;24.80;1.00
25512;DHT22;13414;44.534;18.700;2023-05-16T10:12:00;24.80;1.00
25512;DHT22;13414;44.534;18.700;2023-05-16T10:14:29;24.90;1.00
25512;DHT22;13414;44.534;18.700;2023-05-16T10:17:00;25.10;1.00
25512;DHT22;13414;44.534;18.700;2023-05-16T10:19:31;25.40;1.00
25512;DHT22;13414;44.534;18.700;2023-05-16T10:22:05;25.40;1.00
25512;DHT22;13414;44.534;18.700;2023-05-16T10:24:38;25.40;1.00
25512;DHT22;13414;44.534;18.700;2023-05-16T10:27:06;25.10;1.00
25512;DHT22;13414;44.534;18.700;2023-05-16T10:29:34;24.70;1.00
25512;DHT22;13414;44.534;18.700;2023-05-16T10:32:03;24.60;1.00
25512;DHT22;13414;44.534;18.700;2023-05-16T10:34:31;24.40;1.00
25512;DHT22;13414;44.534;18.700;2023-05-16T10:36:59;24.00;1.00
25512;DHT22;13414;44.534;18.700;2023-05-16T10:39:28;23.30;1.00
25512;DHT22;13414;44.534;18.700;2023-05-16T10:41:56;23.20;1.00
25512;DHT22;13414;44.534;18.700;2023-05-16T10:44:24;23.20;1.00
25512;DHT22;13414;44.534;18.700;2023-05-16T10:46:52;23.20;1.00
25512;DHT22;13414;44.534;18.700;2023-05-16T10:49:21;23.40;1.00
25512;DHT22;13414;44.534;18.700;2023-05-16T10:52:07;23.30;1.00
25512;DHT22;13414;44.534;18.700;2023-05-16T10:54:37;23.20;1.00
25512;DHT22;13414;44.534;18.700;2023-05-16T10:57:07;23.20;1.00
25512;DHT22;13414;44.534;18.700;2023-05-16T10:59:43;23.40;99.90
25512;DHT22;13414;44.534;18.700;2023-05-16T11:02:24;23.60;1.00
25512;DHT22;13414;44.534;18.700;2023-05-16T11:04:55;23.80;1.00
25512;DHT22;13414;44.534;18.700;2023-05-16T11:07:25;24.00;99.90
25512;DHT22;13414;44.534;18.700;2023-05-16T11:10:06;24.10;1.00
25512;DHT22;13414;44.534;18.700;2023-05-16T11:12:51;24.40;1.00
25512;DHT22;13414;44.534;18.700;2023-05-16T11:15:22;24.90;99.90
25512;DHT22;13414;44.534;18.700;2023-05-16T11:17:50;24.90;53.10
25512;DHT22;13414;44.534;18.700;2023-05-16T11:20:29;24.90;99.90
25512;DHT22;13414;44.534;18.700;2023-05-16T11:23:24;24.90;24.30
25512;DHT22;13414;44.534;18.700;2023-05-16T11:25:54;25.10;1.00
25512;DHT22;13414;44.534;18.700;2023-05-16T11:28:24;25.10;1.00
25512;DHT22;13414;44.534;18.700;2023-05-16T11:30:52;25.00;1.00
25512;DHT22;13414;44.534;18.700;2023-05-16T11:33:22;25.10;1.00
25512;DHT22;13414;44.534;18.700;2023-05-16T11:36:00;25.10;1.00
25512;DHT22;13414;44.534;18.700;2023-05-16T11:38:29;25.40;1.00
25512;DHT22;13414;44.534;18.700;2023-05-16T11:41:03;25.30;1.00
25512;DHT22;13414;44.534;18.700;2023-05-16T11:43:37;25.20;6.50
25512;DHT22;13414;44.534;18.700;2023-05-16T11:46:04;25.00;1.00
25512;DHT22;13414;44.534;18.700;2023-05-16T11:48:32;24.50;1.00
25512;DHT22;13414;44.534;18.700;2023-05-16T11:51:01;24.10;97.70
25512;DHT22;13414;44.534;18.700;2023-05-16T11:53:28;24.00;99.90
25512;DHT22;13414;44.534;18.700;2023-05-16T11:55:56;23.70;99.90
25512;DHT22;13414;44.534;18.700;2023-05-16T11:58:27;23.40;1.00
25512;DHT22;13414;44.534;18.700;2023-05-16T12:00:55;23.40;1.00
25512;DHT22;13414;44.534;18.700;2023-05-16T12:03:23;23.30;1.00
25512;DHT22;13414;44.534;18.700;2023-05-16T12:05:50;23.30;99.50
25512;DHT22;13414;44.534;18.700;2023-05-16T12:08:19;23.50;1.00
25512;DHT22;13414;44.534;18.700;2023-05-16T12:10:51;23.40;99.90
25512;DHT22;13414;44.534;18.700;2023-05-16T12:13:20;23.40;99.90
25512;DHT22;13414;44.534;18.700;2023-05-16T12:15:50;23.40;99.90
25512;DHT22;13414;44.534;18.700;2023-05-16T12:18:18;23.60;1.00
25512;DHT22;13414;44.534;18.700;2023-05-16T12:20:47;23.70;99.90
25512;DHT22;13414;44.534;18.700;2023-05-16T12:23:15;23.60;85.60
25512;DHT22;13414;44.534;18.700;2023-05-16T12:25:45;23.60;1.00
25512;DHT22;13414;44.534;18.700;2023-05-16T12:28:14;23.70;1.00
25512;DHT22;13414;44.534;18.700;2023-05-16T12:30:43;23.70;1.00
25512;DHT22;13414;44.534;18.700;2023-05-16T12:33:15;23.70;99.90
25512;DHT22;13414;44.534;18.700;2023-05-16T12:35:44;23.60;1.00
25512;DHT22;13414;44.534;18.700;2023-05-16T12:38:13;23.60;1.00
25512;DHT22;13414;44.534;18.700;2023-05-16T12:40:43;23.60;99.90
25512;DHT22;13414;44.534;18.700;2023-05-16T12:43:14;23.60;1.00
25512;DHT22;13414;44.534;18.700;2023-05-16T12:45:43;23.60;1.00
25512;DHT22;13414;44.534;18.700;2023-05-16T12:48:17;23.70;99.90
25512;DHT22;13414;44.534;18.700;2023-05-16T12:50:45;23.80;1.00
25512;DHT22;13414;44.534;18.700;2023-05-16T12:53:14;23.90;1.00
25512;DHT22;13414;44.534;18.700;2023-05-16T12:55:42;23.80;1.00
25512;DHT22;13414;44.534;18.700;2023-05-16T12:58:10;23.60;1.00
25512;DHT22;13414;44.534;18.700;2023-05-16T13:00:38;23.60;1.00
25512;DHT22;13414;44.534;18.700;2023-05-16T13:03:06;23.90;1.00
25512;DHT22;13414;44.534;18.700;2023-05-16T13:05:35;24.00;1.00
25512;DHT22;13414;44.534;18.700;2023-05-16T13:08:02;24.00;1.00
25512;DHT22;13414;44.534;18.700;2023-05-16T13:10:30;23.80;99.90
25512;DHT22;13414;44.534;18.700;2023-05-16T13:12:57;23.60;99.90
25512;DHT22;13414;44.534;18.700;2023-05-16T13:15:24;23.40;1.00
25512;DHT22;13414;44.534;18.700;2023-05-16T13:17:52;23.30;99.90
25512;DHT22;13414;44.534;18.700;2023-05-16T13:20:20;23.10;1.00
25512;DHT22;13414;44.534;18.700;2023-05-16T13:22:49;23.00;99.90
25512;DHT22;13414;44.534;18.700;2023-05-16T13:25:16;23.10;99.90
25512;DHT22;13414;44.534;18.700;2023-05-16T13:27:43;23.10;26.40
25512;DHT22;13414;44.534;18.700;2023-05-16T13:30:11;23.10;1.00
25512;DHT22;13414;44.534;18.700;2023-05-16T13:32:39;23.30;1.00
25512;DHT22;13414;44.534;18.700;2023-05-16T13:35:06;23.50;99.90
25512;DHT22;13414;44.534;18.700;2023-05-16T13:37:34;23.70;99.90
25512;DHT22;13414;44.534;18.700;2023-05-16T13:40:04;23.90;1.00
25512;DHT22;13414;44.534;18.700;2023-05-16T13:42:35;23.90;1.00
25512;DHT22;13414;44.534;18.700;2023-05-16T13:45:04;23.90;99.90
25512;DHT22;13414;44.534;18.700;2023-05-16T13:47:32;23.90;1.00
25512;DHT22;13414;44.534;18.700;2023-05-16T13:49:59;23.90;1.00
25512;DHT22;13414;44.534;18.700;2023-05-16T13:52:31;23.50;1.00
25512;DHT22;13414;44.534;18.700;2023-05-16T13:54:58;22.00;1.00
25512;DHT22;13414;44.534;18.700;2023-05-16T13:57:27;20.50;99.90
25512;DHT22;13414;44.534;18.700;2023-05-16T13:59:55;19.20;99.90
25512;DHT22;13414;44.534;18.700;2023-05-16T14:02:22;18.10;99.90
25512;DHT22;13414;44.534;18.700;2023-05-16T14:04:51;17.40;99.90
25512;DHT22;13414;44.534;18.700;2023-05-16T14:07:18;16.80;99.90
25512;DHT22;13414;44.534;18.700;2023-05-16T14:09:46;16.60;99.90
25512;DHT22;13414;44.534;18.700;2023-05-16T14:12:13;16.40;99.90
25512;DHT22;13414;44.534;18.700;2023-05-16T14:14:42;16.40;99.90
25512;DHT22;13414;44.534;18.700;2023-05-16T14:17:10;16.40;99.90
25512;DHT22;13414;44.534;18.700;2023-05-16T14:19:38;16.50;99.90
25512;DHT22;13414;44.534;18.700;2023-05-16T14:22:05;16.70;99.90
25512;DHT22;13414;44.534;18.700;2023-05-16T14:24:33;16.70;99.90
25512;DHT22;13414;44.534;18.700;2023-05-16T14:27:00;16.90;99.90
25512;DHT22;13414;44.534;18.700;2023-05-16T14:29:28;17.10;99.90
25512;DHT22;13414;44.534;18.700;2023-05-16T14:31:57;17.40;99.90
25512;DHT22;13414;44.534;18.700;2023-05-16T14:34:24;17.80;99.90
25512;DHT22;13414;44.534;18.700;2023-05-16T14:36:51;18.10;99.90
25512;DHT22;13414;44.534;18.700;2023-05-16T14:39:19;18.40;99.90
25512;DHT22;13414;44.534;18.700;2023-05-16T14:41:46;18.70;99.90
25512;DHT22;13414;44.534;18.700;2023-05-16T14:44:14;18.90;99.90
25512;DHT22;13414;44.534;18.700;2023-05-16T14:46:42;18.90;99.90
25512;DHT22;13414;44.534;18.700;2023-05-16T14:49:11;18.90;99.90
25512;DHT22;13414;44.534;18.700;2023-05-16T14:51:38;19.10;99.90
25512;DHT22;13414;44.534;18.700;2023-05-16T14:54:06;19.30;99.90
25512;DHT22;13414;44.534;18.700;2023-05-16T14:56:33;19.40;99.90
25512;DHT22;13414;44.534;18.700;2023-05-16T14:59:01;19.40;99.90
25512;DHT22;13414;44.534;18.700;2023-05-16T15:01:28;19.50;99.90
25512;DHT22;13414;44.534;18.700;2023-05-16T15:03:56;19.60;99.90
25512;DHT22;13414;44.534;18.700;2023-05-16T15:06:25;19.70;99.90
25512;DHT22;13414;44.534;18.700;2023-05-16T15:08:53;20.00;99.90
25512;DHT22;13414;44.534;18.700;2023-05-16T15:11:20;20.20;99.90
25512;DHT22;13414;44.534;18.700;2023-05-16T15:13:48;20.50;99.90
25512;DHT22;13414;44.534;18.700;2023-05-16T15:16:15;20.70;99.90
25512;DHT22;13414;44.534;18.700;2023-05-16T15:18:43;20.90;99.90
25512;DHT22;13414;44.534;18.700;2023-05-16T15:21:10;21.10;99.90
25512;DHT22;13414;44.534;18.700;2023-05-16T15:23:39;21.00;99.90
25512;DHT22;13414;44.534;18.700;2023-05-16T15:26:07;21.00;99.90
25512;DHT22;13414;44.534;18.700;2023-05-16T15:28:34;21.30;99.90
25512;DHT22;13414;44.534;18.700;2023-05-16T15:31:02;21.40;99.90